createdAt,value
2023-02-18T00:01:42.865Z,10.80
2023-02-18T00:04:11.328Z,10.80
2023-02-18T00:06:39.930Z,10.90
2023-02-18T00:09:09.099Z,10.80
2023-02-18T00:11:38.579Z,10.90
2023-02-18T00:14:09.863Z,10.80
2023-02-18T00:16:38.750Z,10.90
2023-02-18T00:19:11.111Z,10.90
2023-02-18T00:21:39.625Z,10.90
2023-02-18T00:24:09.244Z,10.90
2023-02-18T00:26:37.736Z,10.90
2023-02-18T00:29:05.984Z,10.80
2023-02-18T00:31:37.879Z,10.80
2023-02-18T00:34:07.807Z,10.80
2023-02-18T00:36:37.213Z,10.80
2023-02-18T00:39:09.235Z,10.80
2023-02-18T00:41:38.103Z,10.70
2023-02-18T00:44:06.780Z,10.70
2023-02-18T00:46:36.168Z,10.70
2023-02-18T00:49:05.070Z,10.70
2023-02-18T00:51:35.450Z,10.70
2023-02-18T00:54:03.733Z,10.70
2023-02-18T00:56:32.952Z,10.70
2023-02-18T00:59:01.242Z,10.80
2023-02-18T01:01:29.608Z,10.80
2023-02-18T01:03:57.907Z,10.80
2023-02-18T01:06:26.191Z,10.80
2023-02-18T01:08:55.767Z,10.80
2023-02-18T01:11:24.208Z,10.70
2023-02-18T01:13:52.996Z,10.80
2023-02-18T01:16:21.628Z,10.80
2023-02-18T01:18:49.936Z,10.80
2023-02-18T01:21:18.580Z,10.80
2023-02-18T01:23:46.900Z,10.80
2023-02-18T01:26:18.755Z,10.80
2023-02-18T01:28:47.083Z,10.80
2023-02-18T01:31:16.221Z,10.80
2023-02-18T01:33:44.919Z,10.70
2023-02-18T01:36:13.639Z,10.70
2023-02-18T01:38:42.330Z,10.70
2023-02-18T01:41:11.329Z,10.70
2023-02-18T01:43:41.128Z,10.70
2023-02-18T01:46:18.411Z,10.70
2023-02-18T01:48:51.665Z,10.80
2023-02-18T01:51:23.072Z,10.80
2023-02-18T01:53:55.888Z,10.80
2023-02-18T01:56:30.522Z,10.80
2023-02-18T01:59:02.672Z,10.80
2023-02-18T02:01:33.686Z,10.70
2023-02-18T02:04:03.037Z,10.70
2023-02-18T02:06:31.349Z,10.70
2023-02-18T02:09:03.980Z,10.70
2023-02-18T02:11:56.247Z,10.80
2023-02-18T02:14:40.604Z,10.80
2023-02-18T02:17:17.001Z,10.80
2023-02-18T02:20:15.269Z,10.80
2023-02-18T02:23:31.600Z,10.80
2023-02-18T02:26:20.371Z,10.80
2023-02-18T02:29:12.818Z,10.80
2023-02-18T02:32:04.940Z,10.80
2023-02-18T02:34:55.964Z,10.90
2023-02-18T02:37:33.807Z,10.90
2023-02-18T02:40:16.808Z,10.90
2023-02-18T02:42:54.833Z,11.00
2023-02-18T02:45:30.209Z,11.00
2023-02-18T02:48:06.330Z,10.90
2023-02-18T02:50:42.354Z,10.90
2023-02-18T02:53:16.144Z,10.90
2023-02-18T02:55:44.488Z,10.90
2023-02-18T02:58:16.817Z,10.90
2023-02-18T03:01:13.483Z,10.80
2023-02-18T03:04:01.112Z,10.80
2023-02-18T03:06:51.740Z,10.80
2023-02-18T03:09:31.098Z,10.80
2023-02-18T03:12:07.106Z,10.70
2023-02-18T03:14:45.726Z,10.60
2023-02-18T03:17:21.438Z,10.50
2023-02-18T03:19:56.485Z,10.40
2023-02-18T03:22:31.238Z,10.40
2023-02-18T03:25:02.650Z,10.30
2023-02-18T03:27:34.663Z,10.30
2023-02-18T03:30:07.873Z,10.30
2023-02-18T03:32:37.700Z,10.30
2023-02-18T03:35:09.890Z,10.40
2023-02-18T03:37:43.987Z,10.40
2023-02-18T03:40:13.078Z,10.40
2023-02-18T03:42:41.379Z,10.50
2023-02-18T03:45:09.723Z,10.50
2023-02-18T03:47:38.274Z,10.50
2023-02-18T03:50:07.547Z,10.50
2023-02-18T03:52:36.925Z,10.60
2023-02-18T03:55:09.226Z,10.60
2023-02-18T03:57:37.577Z,10.70
2023-02-18T04:00:07.467Z,10.70
2023-02-18T04:02:41.931Z,10.70
2023-02-18T04:05:10.607Z,10.70
2023-02-18T04:07:38.831Z,10.70
2023-02-18T04:10:09.588Z,10.70
2023-02-18T04:12:38.017Z,10.80
2023-02-18T04:15:06.880Z,10.70
2023-02-18T04:17:35.694Z,10.80
2023-02-18T04:20:04.732Z,10.70
2023-02-18T04:22:33.321Z,10.70
2023-02-18T04:25:01.587Z,10.70
2023-02-18T04:27:32.432Z,10.70
2023-02-18T04:30:01.137Z,10.70
2023-02-18T04:32:29.412Z,10.60
2023-02-18T04:34:57.961Z,10.60
2023-02-18T04:37:26.260Z,10.70
2023-02-18T04:39:54.581Z,10.80
2023-02-18T04:42:22.840Z,10.70
2023-02-18T04:44:52.518Z,10.70
2023-02-18T04:47:20.744Z,10.70
2023-02-18T04:49:49.157Z,10.60
2023-02-18T04:52:17.504Z,10.60
2023-02-18T04:54:46.044Z,10.60
2023-02-18T04:57:14.495Z,10.60
2023-02-18T04:59:42.861Z,10.60
2023-02-18T05:02:12.391Z,10.60
2023-02-18T05:04:40.847Z,10.60
2023-02-18T05:07:09.118Z,10.50
2023-02-18T05:09:37.456Z,10.40
2023-02-18T05:12:06.014Z,10.40
2023-02-18T05:14:34.389Z,10.40
2023-02-18T05:17:02.790Z,10.40
2023-02-18T05:19:32.490Z,10.30
2023-02-18T05:22:00.719Z,10.30
2023-02-18T05:24:29.028Z,10.30
2023-02-18T05:26:57.231Z,10.20
2023-02-18T05:29:25.669Z,10.20
2023-02-18T05:31:53.953Z,10.30
2023-02-18T05:34:22.282Z,10.30
2023-02-18T05:36:51.740Z,10.30
2023-02-18T05:39:20.077Z,10.30
2023-02-18T05:41:48.307Z,10.40
2023-02-18T05:44:39.471Z,10.40
2023-02-18T05:47:11.522Z,10.50
2023-02-18T05:49:42.049Z,10.50
2023-02-18T05:52:12.617Z,10.50
2023-02-18T05:54:41.449Z,10.50
2023-02-18T05:57:09.969Z,10.50
2023-02-18T05:59:38.292Z,10.50
2023-02-18T06:02:06.573Z,10.40
2023-02-18T06:04:34.982Z,10.40
2023-02-18T06:07:03.354Z,10.40
2023-02-18T06:09:33.068Z,10.30
2023-02-18T06:12:01.379Z,10.30
2023-02-18T06:14:29.628Z,10.20
2023-02-18T06:16:57.959Z,10.20
2023-02-18T06:19:26.268Z,10.10
2023-02-18T06:21:56.051Z,10.10
2023-02-18T06:24:24.510Z,10.00
2023-02-18T06:26:54.095Z,10.00
2023-02-18T06:29:22.615Z,10.00
2023-02-18T06:31:51.065Z,10.00
2023-02-18T06:34:19.463Z,10.00
2023-02-18T06:36:47.683Z,9.90
2023-02-18T06:39:16.118Z,9.90
2023-02-18T06:41:44.480Z,10.00
2023-02-18T06:44:15.286Z,10.00
2023-02-18T06:46:43.618Z,10.00
2023-02-18T06:49:11.906Z,10.10
2023-02-18T06:51:40.269Z,10.20
2023-02-18T06:54:08.629Z,10.20
2023-02-18T06:56:36.985Z,10.20
2023-02-18T06:59:05.244Z,10.30
2023-02-18T07:01:34.787Z,10.40
2023-02-18T07:04:03.141Z,10.30
2023-02-18T07:06:31.612Z,10.40
2023-02-18T07:08:59.884Z,10.40
2023-02-18T07:11:28.205Z,10.50
2023-02-18T07:13:56.456Z,10.50
2023-02-18T07:16:24.773Z,10.60
2023-02-18T07:18:54.243Z,10.60
2023-02-18T07:21:22.551Z,10.70
2023-02-18T07:23:50.757Z,10.60
2023-02-18T07:26:18.974Z,10.60
2023-02-18T07:28:47.189Z,10.60
2023-02-18T07:31:15.518Z,10.60
2023-02-18T07:33:43.757Z,10.60
2023-02-18T07:36:13.406Z,10.60
2023-02-18T07:38:42.934Z,10.70
2023-02-18T07:41:18.258Z,10.70
2023-02-18T07:43:46.860Z,10.70
2023-02-18T07:46:15.416Z,10.70
2023-02-18T07:48:43.739Z,10.70
2023-02-18T07:51:14.042Z,10.70
2023-02-18T07:53:42.458Z,10.70
2023-02-18T07:56:11.010Z,10.70
2023-02-18T07:58:40.766Z,10.70
2023-02-18T08:01:10.293Z,10.70
2023-02-18T08:03:39.049Z,10.70
2023-02-18T08:06:08.134Z,10.70
2023-02-18T08:08:37.939Z,10.80
2023-02-18T08:11:18.649Z,10.70
2023-02-18T08:13:48.162Z,10.70
2023-02-18T08:16:16.974Z,10.70
2023-02-18T08:18:48.155Z,10.80
2023-02-18T08:21:19.006Z,10.70
2023-02-18T08:23:50.982Z,10.80
2023-02-18T08:26:21.176Z,10.80
2023-02-18T08:28:52.118Z,10.80
2023-02-18T08:31:26.354Z,10.80
2023-02-18T08:33:57.614Z,10.70
2023-02-18T08:36:26.599Z,10.70
2023-02-18T08:39:00.666Z,10.70
2023-02-18T08:41:30.709Z,10.70
2023-02-18T08:44:02.753Z,10.70
2023-02-18T08:46:35.358Z,10.70
2023-02-18T08:49:05.855Z,10.70
2023-02-18T08:51:38.222Z,10.70
2023-02-18T08:54:10.942Z,10.70
2023-02-18T08:56:42.507Z,10.70
2023-02-18T08:59:15.448Z,10.70
2023-02-18T09:01:47.000Z,10.70
2023-02-18T09:04:15.910Z,10.70
2023-02-18T09:06:44.700Z,10.80
2023-02-18T09:09:18.395Z,10.70
2023-02-18T09:11:53.794Z,10.80
2023-02-18T09:14:23.788Z,10.80
2023-02-18T09:16:56.390Z,10.90
2023-02-18T09:19:28.720Z,10.90
2023-02-18T09:22:02.532Z,10.90
2023-02-18T09:24:40.243Z,10.90
2023-02-18T09:27:11.476Z,10.90
2023-02-18T09:29:41.747Z,10.90
2023-02-18T09:32:13.218Z,11.00
2023-02-18T09:34:44.195Z,11.00
2023-02-18T09:37:12.509Z,10.90
2023-02-18T09:39:42.099Z,10.90
2023-02-18T09:42:17.573Z,10.80
2023-02-18T09:44:50.149Z,10.80
2023-02-18T09:47:22.676Z,10.80
2023-02-18T09:49:54.161Z,10.80
2023-02-18T09:52:24.791Z,10.80
2023-02-18T09:54:54.513Z,10.80
2023-02-18T09:57:27.153Z,10.80
2023-02-18T10:00:01.811Z,10.80
2023-02-18T10:02:42.540Z,10.80
2023-02-18T10:05:15.981Z,10.80
2023-02-18T10:07:45.372Z,10.90
2023-02-18T10:10:22.149Z,10.90
2023-02-18T10:12:51.151Z,11.00
2023-02-18T10:15:25.046Z,11.00
2023-02-18T10:17:54.023Z,11.10
2023-02-18T10:20:26.092Z,11.10
2023-02-18T10:22:56.459Z,11.00
2023-02-18T10:25:27.038Z,11.00
2023-02-18T10:27:55.556Z,10.90
2023-02-18T10:30:28.651Z,10.90
2023-02-18T10:33:02.905Z,10.90
2023-02-18T10:35:36.644Z,11.00
2023-02-18T10:38:17.808Z,10.90
2023-02-18T10:41:00.135Z,11.00
2023-02-18T10:43:37.284Z,11.10
2023-02-18T10:46:14.503Z,11.10
2023-02-18T10:48:55.415Z,11.10
2023-02-18T10:51:26.896Z,11.20
2023-02-18T10:53:56.106Z,11.30
2023-02-18T10:56:40.068Z,11.40
2023-02-18T10:59:14.813Z,11.50
2023-02-18T11:01:44.786Z,11.70
2023-02-18T11:04:17.005Z,11.70
2023-02-18T11:06:47.776Z,11.90
2023-02-18T11:09:29.367Z,12.00
2023-02-18T11:12:09.099Z,12.10
2023-02-18T11:14:41.173Z,12.00
2023-02-18T16:32:17.347Z,10.80
2023-02-18T16:34:58.284Z,10.70
2023-02-18T16:37:41.356Z,10.60
2023-02-18T16:40:43.414Z,10.60
2023-02-18T16:43:21.909Z,10.70
2023-02-18T16:49:02.244Z,10.60
2023-02-18T16:55:08.646Z,10.60
2023-02-18T16:55:12.043Z,10.60
2023-02-18T16:57:38.541Z,10.60
2023-02-18T17:00:35.000Z,10.60
2023-02-18T17:03:03.919Z,10.60
2023-02-18T17:05:50.243Z,10.60
2023-02-18T17:08:23.255Z,10.60
2023-02-18T17:10:54.147Z,10.70
2023-02-18T17:13:26.848Z,10.60
2023-02-18T17:16:12.422Z,10.60
2023-02-18T17:20:44.482Z,10.60
2023-02-18T17:23:17.424Z,10.60
2023-02-18T17:25:56.202Z,10.60
2023-02-18T17:28:52.515Z,10.60
2023-02-18T17:32:00.036Z,10.50
2023-02-18T17:39:21.334Z,10.40
2023-02-18T17:42:17.176Z,10.40
2023-02-18T17:44:46.636Z,10.30
2023-02-18T17:47:14.897Z,10.30
2023-02-18T17:49:43.053Z,10.30
2023-02-18T17:52:29.069Z,10.30
2023-02-18T17:54:57.304Z,10.20
2023-02-18T17:57:25.907Z,10.20
2023-02-18T17:59:58.020Z,10.20
2023-02-18T18:02:29.670Z,10.20
2023-02-18T18:04:59.866Z,10.20
2023-02-18T18:07:28.258Z,10.10
2023-02-18T18:09:59.846Z,10.10
2023-02-18T18:12:29.870Z,10.10
2023-02-18T18:15:02.892Z,10.10
2023-02-18T18:17:32.751Z,10.10
2023-02-18T18:20:06.063Z,10.00
2023-02-18T18:22:34.703Z,10.00
2023-02-18T18:25:04.796Z,10.00
2023-02-18T18:27:34.215Z,10.00
2023-02-18T18:30:05.434Z,10.00
2023-02-18T18:32:34.239Z,10.00
2023-02-18T18:35:03.751Z,9.90
2023-02-18T18:37:34.734Z,9.80
2023-02-18T18:40:04.120Z,9.80
2023-02-18T18:42:35.207Z,9.80
2023-02-18T18:45:05.519Z,9.70
2023-02-18T18:47:34.976Z,9.70
2023-02-18T18:50:05.307Z,9.60
2023-02-18T18:52:34.265Z,9.60
2023-02-18T18:55:05.736Z,9.60
2023-02-18T18:57:34.371Z,9.50
2023-02-18T19:00:04.850Z,9.50
2023-02-18T19:02:33.899Z,9.50
2023-02-18T19:05:03.802Z,9.40
2023-02-18T19:07:32.252Z,9.50
2023-02-18T19:10:02.984Z,9.50
2023-02-18T19:12:36.731Z,9.50
2023-02-18T19:15:11.470Z,9.50
2023-02-18T19:17:46.358Z,9.40
2023-02-18T19:20:18.620Z,9.40
2023-02-18T19:22:47.575Z,9.40
2023-02-18T19:25:15.886Z,9.30
2023-02-18T19:27:45.443Z,9.30
2023-02-18T19:30:17.900Z,9.30
2023-02-18T19:32:46.988Z,9.30
2023-02-18T19:35:15.334Z,9.40
2023-02-18T19:37:43.890Z,9.40
2023-02-18T19:40:14.439Z,9.40
2023-02-18T19:42:42.845Z,9.40
2023-02-18T19:45:11.436Z,9.40
2023-02-18T19:47:41.084Z,9.40
2023-02-18T19:50:10.634Z,9.50
2023-02-18T19:52:38.957Z,9.40
2023-02-18T19:55:08.598Z,9.40
2023-02-18T19:57:37.064Z,9.40
2023-02-18T20:00:08.396Z,9.40
2023-02-18T20:02:43.244Z,9.30
2023-02-18T20:05:13.295Z,9.30
2023-02-18T20:07:42.442Z,9.40
2023-02-18T20:10:13.250Z,9.40
2023-02-18T20:12:41.598Z,9.40
2023-02-18T20:15:10.180Z,9.40
2023-02-18T20:17:39.839Z,9.40
2023-02-18T20:20:09.764Z,9.40
2023-02-18T20:22:38.112Z,9.50
2023-02-18T20:25:06.594Z,9.50
2023-02-18T20:27:37.537Z,9.40
2023-02-18T20:30:09.316Z,9.50
2023-02-18T20:32:38.070Z,9.50
2023-02-18T20:35:07.318Z,9.50
2023-02-18T20:37:37.482Z,9.50
2023-02-18T20:40:06.582Z,9.50
2023-02-18T20:42:35.048Z,9.50
2023-02-18T20:45:03.355Z,9.50
2023-02-18T20:47:32.001Z,9.50
2023-02-18T20:50:00.256Z,9.60
2023-02-18T20:52:28.803Z,9.50
2023-02-18T20:54:59.004Z,9.50
2023-02-18T20:57:27.982Z,9.60
2023-02-18T20:59:58.007Z,9.50
2023-02-18T21:02:26.268Z,9.50
2023-02-18T21:04:54.625Z,9.50
2023-02-18T21:07:22.784Z,9.50
2023-02-18T21:09:51.059Z,9.40
2023-02-18T21:12:20.736Z,9.40
2023-02-18T21:14:49.042Z,9.40
2023-02-18T21:17:17.340Z,9.30
2023-02-18T21:19:45.594Z,9.30
2023-02-18T21:22:13.774Z,9.30
2023-02-18T21:24:42.126Z,9.30
2023-02-18T21:27:11.043Z,9.40
2023-02-18T21:29:40.694Z,9.40
2023-02-18T21:32:09.158Z,9.40
2023-02-18T21:34:37.612Z,9.40
2023-02-18T21:37:05.912Z,9.40
2023-02-18T21:39:34.226Z,9.40
2023-02-18T21:42:04.210Z,9.50
2023-02-18T21:44:41.754Z,9.40
2023-02-18T21:47:12.500Z,9.40
2023-02-18T21:49:40.799Z,9.40
2023-02-18T21:52:09.515Z,9.40
2023-02-18T21:54:40.305Z,9.50
2023-02-18T21:57:11.448Z,9.50
2023-02-18T21:59:40.157Z,9.50
2023-02-18T22:02:12.949Z,9.50
2023-02-18T22:04:42.573Z,9.50
2023-02-18T22:07:10.763Z,9.50
2023-02-18T22:09:39.314Z,9.50
2023-02-18T22:12:08.283Z,9.60
2023-02-18T22:14:36.608Z,9.60
2023-02-18T22:17:04.931Z,9.60
2023-02-18T22:19:33.226Z,9.60
2023-02-18T22:22:03.279Z,9.70
2023-02-18T22:24:32.556Z,9.70
2023-02-18T22:27:01.459Z,9.70
2023-02-18T22:29:31.590Z,9.70
2023-02-18T22:32:00.126Z,9.80
2023-02-18T22:34:28.532Z,9.70
2023-02-18T22:36:56.894Z,9.70
2023-02-18T22:39:26.564Z,9.70
2023-02-18T22:41:54.811Z,9.90
2023-02-18T22:44:24.281Z,9.90
2023-02-18T22:46:55.250Z,9.90
2023-02-18T22:49:24.240Z,9.90
2023-02-18T22:51:54.442Z,9.80
2023-02-18T22:54:23.279Z,9.80
2023-02-18T22:56:54.789Z,9.80
2023-02-18T22:59:23.132Z,9.80
2023-02-18T23:01:52.870Z,9.80
2023-02-18T23:04:21.873Z,9.80
2023-02-18T23:06:50.688Z,9.80
2023-02-18T23:09:21.694Z,9.80
2023-02-18T23:11:54.296Z,9.80
2023-02-18T23:14:22.882Z,9.70
2023-02-18T23:17:10.573Z,9.80
2023-02-18T23:19:39.653Z,9.80
2023-02-18T23:22:09.064Z,9.70
2023-02-18T23:24:39.569Z,9.70
2023-02-18T23:27:10.861Z,9.70
2023-02-18T23:29:39.478Z,9.70
2023-02-18T23:32:08.421Z,9.60
2023-02-18T23:34:38.056Z,9.60
2023-02-18T23:37:06.481Z,9.60
2023-02-18T23:39:35.171Z,9.60
2023-02-18T23:42:03.427Z,9.60
2023-02-18T23:44:33.245Z,9.50
2023-02-18T23:47:01.396Z,9.50
2023-02-18T23:49:29.767Z,9.50
2023-02-18T23:51:58.466Z,9.60
2023-02-18T23:54:27.300Z,9.50
2023-02-18T23:56:55.474Z,9.60
2023-02-18T23:59:23.737Z,9.60
